sensor_id;sensor_type;location;lat;lon;timestamp;P1;durP1;ratioP1;P2;durP2;ratioP2
39982;SDS011;25670;44.782;10.356;2023-02-28T00:01:06;15.63;;;8.00;;
39982;SDS011;25670;44.782;10.356;2023-02-28T00:03:32;13.45;;;7.97;;
39982;SDS011;25670;44.782;10.356;2023-02-28T00:06:01;10.93;;;8.02;;
39982;SDS011;25670;44.782;10.356;2023-02-28T00:08:31;12.80;;;8.10;;
39982;SDS011;25670;44.782;10.356;2023-02-28T00:11:05;12.27;;;8.18;;
39982;SDS011;25670;44.782;10.356;2023-02-28T00:13:34;15.00;;;8.65;;
39982;SDS011;25670;44.782;10.356;2023-02-28T00:16:04;10.65;;;8.48;;
39982;SDS011;25670;44.782;10.356;2023-02-28T00:18:35;16.27;;;8.60;;
39982;SDS011;25670;44.782;10.356;2023-02-28T00:21:01;8.48;;;7.68;;
39982;SDS011;25670;44.782;10.356;2023-02-28T00:23:28;15.27;;;9.25;;
39982;SDS011;25670;44.782;10.356;2023-02-28T00:25:54;12.43;;;8.63;;
39982;SDS011;25670;44.782;10.356;2023-02-28T00:28:21;10.00;;;7.80;;
39982;SDS011;25670;44.782;10.356;2023-02-28T00:30:48;10.50;;;7.85;;
39982;SDS011;25670;44.782;10.356;2023-02-28T00:33:14;12.95;;;7.50;;
39982;SDS011;25670;44.782;10.356;2023-02-28T00:35:41;16.83;;;8.13;;
39982;SDS011;25670;44.782;10.356;2023-02-28T00:38:08;15.43;;;8.75;;
39982;SDS011;25670;44.782;10.356;2023-02-28T00:40:35;12.48;;;7.78;;
39982;SDS011;25670;44.782;10.356;2023-02-28T00:43:01;11.43;;;8.10;;
39982;SDS011;25670;44.782;10.356;2023-02-28T00:45:29;11.63;;;8.23;;
39982;SDS011;25670;44.782;10.356;2023-02-28T00:47:56;10.73;;;8.05;;
39982;SDS011;25670;44.782;10.356;2023-02-28T00:50:23;17.42;;;8.38;;
39982;SDS011;25670;44.782;10.356;2023-02-28T00:52:49;19.15;;;8.13;;
39982;SDS011;25670;44.782;10.356;2023-02-28T00:55:16;12.23;;;7.90;;
39982;SDS011;25670;44.782;10.356;2023-02-28T00:57:43;12.55;;;8.07;;
39982;SDS011;25670;44.782;10.356;2023-02-28T01:00:10;14.60;;;8.70;;
39982;SDS011;25670;44.782;10.356;2023-02-28T01:02:37;11.70;;;8.02;;
39982;SDS011;25670;44.782;10.356;2023-02-28T01:05:03;17.48;;;7.28;;
39982;SDS011;25670;44.782;10.356;2023-02-28T01:07:30;11.00;;;7.32;;
39982;SDS011;25670;44.782;10.356;2023-02-28T01:09:57;11.43;;;8.00;;
39982;SDS011;25670;44.782;10.356;2023-02-28T01:12:24;10.38;;;8.05;;
39982;SDS011;25670;44.782;10.356;2023-02-28T01:14:50;18.05;;;8.30;;
39982;SDS011;25670;44.782;10.356;2023-02-28T01:17:17;13.65;;;7.45;;
39982;SDS011;25670;44.782;10.356;2023-02-28T01:19:43;9.93;;;8.02;;
39982;SDS011;25670;44.782;10.356;2023-02-28T01:22:09;15.35;;;8.52;;
39982;SDS011;25670;44.782;10.356;2023-02-28T01:24:37;15.32;;;7.78;;
39982;SDS011;25670;44.782;10.356;2023-02-28T01:27:03;16.92;;;7.93;;
39982;SDS011;25670;44.782;10.356;2023-02-28T01:29:29;18.80;;;8.50;;
39982;SDS011;25670;44.782;10.356;2023-02-28T01:31:56;11.88;;;8.05;;
39982;SDS011;25670;44.782;10.356;2023-02-28T01:34:25;17.05;;;7.95;;
39982;SDS011;25670;44.782;10.356;2023-02-28T01:36:51;16.55;;;8.20;;
39982;SDS011;25670;44.782;10.356;2023-02-28T01:39:18;17.67;;;8.88;;
39982;SDS011;25670;44.782;10.356;2023-02-28T01:41:45;10.30;;;7.78;;
39982;SDS011;25670;44.782;10.356;2023-02-28T01:47:15;11.27;;;8.07;;
39982;SDS011;25670;44.782;10.356;2023-02-28T01:49:42;24.38;;;7.80;;
39982;SDS011;25670;44.782;10.356;2023-02-28T01:52:08;13.73;;;7.57;;
39982;SDS011;25670;44.782;10.356;2023-02-28T01:54:40;14.23;;;7.28;;
39982;SDS011;25670;44.782;10.356;2023-02-28T01:57:08;13.77;;;7.65;;
39982;SDS011;25670;44.782;10.356;2023-02-28T01:59:46;17.35;;;8.07;;
39982;SDS011;25670;44.782;10.356;2023-02-28T02:02:19;11.35;;;7.07;;
39982;SDS011;25670;44.782;10.356;2023-02-28T02:04:55;12.75;;;7.82;;
39982;SDS011;25670;44.782;10.356;2023-02-28T02:07:35;10.20;;;7.38;;
39982;SDS011;25670;44.782;10.356;2023-02-28T02:10:40;8.65;;;6.38;;
39982;SDS011;25670;44.782;10.356;2023-02-28T02:16:34;13.77;;;7.22;;
39982;SDS011;25670;44.782;10.356;2023-02-28T02:38:45;8.43;;;6.47;;
39982;SDS011;25670;44.782;10.356;2023-02-28T02:46:44;10.68;;;7.35;;
39982;SDS011;25670;44.782;10.356;2023-02-28T02:49:14;7.60;;;6.57;;
39982;SDS011;25670;44.782;10.356;2023-02-28T02:51:46;12.75;;;6.57;;
39982;SDS011;25670;44.782;10.356;2023-02-28T02:54:24;7.18;;;6.47;;
39982;SDS011;25670;44.782;10.356;2023-02-28T02:56:55;13.70;;;6.50;;
39982;SDS011;25670;44.782;10.356;2023-02-28T02:59:24;9.25;;;6.65;;
39982;SDS011;25670;44.782;10.356;2023-02-28T03:01:55;12.55;;;7.53;;
39982;SDS011;25670;44.782;10.356;2023-02-28T03:04:26;11.60;;;6.72;;
39982;SDS011;25670;44.782;10.356;2023-02-28T03:06:57;9.35;;;6.57;;
39982;SDS011;25670;44.782;10.356;2023-02-28T03:09:25;10.55;;;6.85;;
39982;SDS011;25670;44.782;10.356;2023-02-28T03:11:52;6.95;;;6.35;;
39982;SDS011;25670;44.782;10.356;2023-02-28T03:14:41;6.90;;;6.30;;
39982;SDS011;25670;44.782;10.356;2023-02-28T03:20:11;9.07;;;6.53;;
39982;SDS011;25670;44.782;10.356;2023-02-28T03:25:18;9.77;;;6.20;;
39982;SDS011;25670;44.782;10.356;2023-02-28T03:32:55;9.15;;;6.40;;
39982;SDS011;25670;44.782;10.356;2023-02-28T03:35:33;6.70;;;6.10;;
39982;SDS011;25670;44.782;10.356;2023-02-28T03:38:05;9.02;;;6.25;;
39982;SDS011;25670;44.782;10.356;2023-02-28T03:40:48;7.65;;;6.85;;
39982;SDS011;25670;44.782;10.356;2023-02-28T03:43:25;6.90;;;6.20;;
39982;SDS011;25670;44.782;10.356;2023-02-28T03:45:55;7.47;;;6.00;;
39982;SDS011;25670;44.782;10.356;2023-02-28T03:48:24;9.30;;;6.45;;
39982;SDS011;25670;44.782;10.356;2023-02-28T03:50:58;7.07;;;6.18;;
39982;SDS011;25670;44.782;10.356;2023-02-28T03:53:30;6.95;;;6.20;;
39982;SDS011;25670;44.782;10.356;2023-02-28T03:56:08;7.80;;;6.45;;
39982;SDS011;25670;44.782;10.356;2023-02-28T03:58:55;7.22;;;6.55;;
39982;SDS011;25670;44.782;10.356;2023-02-28T04:01:42;7.93;;;6.80;;
39982;SDS011;25670;44.782;10.356;2023-02-28T04:04:11;7.07;;;6.47;;
39982;SDS011;25670;44.782;10.356;2023-02-28T04:06:39;8.57;;;7.53;;
39982;SDS011;25670;44.782;10.356;2023-02-28T04:09:07;7.07;;;6.07;;
39982;SDS011;25670;44.782;10.356;2023-02-28T04:11:38;7.28;;;6.60;;
39982;SDS011;25670;44.782;10.356;2023-02-28T04:14:14;7.38;;;6.68;;
39982;SDS011;25670;44.782;10.356;2023-02-28T04:16:41;9.80;;;6.60;;
39982;SDS011;25670;44.782;10.356;2023-02-28T04:19:08;14.95;;;7.22;;
39982;SDS011;25670;44.782;10.356;2023-02-28T04:24:03;7.47;;;6.85;;
39982;SDS011;25670;44.782;10.356;2023-02-28T04:26:33;6.82;;;6.07;;
39982;SDS011;25670;44.782;10.356;2023-02-28T04:29:01;6.88;;;6.35;;
39982;SDS011;25670;44.782;10.356;2023-02-28T04:31:29;11.20;;;6.50;;
39982;SDS011;25670;44.782;10.356;2023-02-28T04:33:55;10.25;;;6.45;;
39982;SDS011;25670;44.782;10.356;2023-02-28T04:36:22;10.10;;;5.70;;
39982;SDS011;25670;44.782;10.356;2023-02-28T04:38:49;12.50;;;6.72;;
39982;SDS011;25670;44.782;10.356;2023-02-28T04:41:16;7.50;;;6.93;;
39982;SDS011;25670;44.782;10.356;2023-02-28T04:43:42;9.55;;;6.50;;
39982;SDS011;25670;44.782;10.356;2023-02-28T04:46:09;7.22;;;6.63;;
39982;SDS011;25670;44.782;10.356;2023-02-28T04:48:37;7.15;;;6.47;;
39982;SDS011;25670;44.782;10.356;2023-02-28T04:51:04;7.75;;;7.00;;
39982;SDS011;25670;44.782;10.356;2023-02-28T04:53:35;9.02;;;6.75;;
39982;SDS011;25670;44.782;10.356;2023-02-28T04:56:03;7.30;;;6.57;;
39982;SDS011;25670;44.782;10.356;2023-02-28T04:58:31;7.60;;;6.80;;
39982;SDS011;25670;44.782;10.356;2023-02-28T05:01:02;8.45;;;7.65;;
39982;SDS011;25670;44.782;10.356;2023-02-28T05:03:29;7.18;;;6.57;;
39982;SDS011;25670;44.782;10.356;2023-02-28T05:05:56;10.30;;;6.85;;
39982;SDS011;25670;44.782;10.356;2023-02-28T05:08:23;8.23;;;6.95;;
39982;SDS011;25670;44.782;10.356;2023-02-28T05:10:51;11.15;;;6.78;;
39982;SDS011;25670;44.782;10.356;2023-02-28T05:13:17;7.63;;;6.95;;
39982;SDS011;25670;44.782;10.356;2023-02-28T05:15:43;7.32;;;6.68;;
39982;SDS011;25670;44.782;10.356;2023-02-28T05:18:10;8.27;;;7.05;;
39982;SDS011;25670;44.782;10.356;2023-02-28T05:20:36;7.43;;;6.63;;
39982;SDS011;25670;44.782;10.356;2023-02-28T05:23:03;9.05;;;7.40;;
39982;SDS011;25670;44.782;10.356;2023-02-28T05:25:29;8.60;;;6.80;;
39982;SDS011;25670;44.782;10.356;2023-02-28T05:27:56;7.28;;;6.63;;
39982;SDS011;25670;44.782;10.356;2023-02-28T05:30:22;14.27;;;6.80;;
39982;SDS011;25670;44.782;10.356;2023-02-28T05:32:49;9.38;;;6.63;;
39982;SDS011;25670;44.782;10.356;2023-02-28T05:35:17;7.43;;;6.82;;
39982;SDS011;25670;44.782;10.356;2023-02-28T05:37:43;14.45;;;7.50;;
39982;SDS011;25670;44.782;10.356;2023-02-28T05:40:10;8.63;;;6.93;;
39982;SDS011;25670;44.782;10.356;2023-02-28T05:42:37;11.55;;;6.70;;
39982;SDS011;25670;44.782;10.356;2023-02-28T05:45:04;8.05;;;6.93;;
39982;SDS011;25670;44.782;10.356;2023-02-28T05:47:32;7.90;;;6.75;;
39982;SDS011;25670;44.782;10.356;2023-02-28T05:49:59;11.55;;;7.00;;
39982;SDS011;25670;44.782;10.356;2023-02-28T05:52:26;7.70;;;6.97;;
39982;SDS011;25670;44.782;10.356;2023-02-28T05:54:53;7.60;;;6.88;;
39982;SDS011;25670;44.782;10.356;2023-02-28T05:57:20;7.97;;;6.85;;
39982;SDS011;25670;44.782;10.356;2023-02-28T05:59:46;8.15;;;6.45;;
39982;SDS011;25670;44.782;10.356;2023-02-28T06:02:13;8.20;;;7.20;;
39982;SDS011;25670;44.782;10.356;2023-02-28T06:04:40;10.50;;;6.93;;
39982;SDS011;25670;44.782;10.356;2023-02-28T06:07:07;7.70;;;6.95;;
39982;SDS011;25670;44.782;10.356;2023-02-28T06:09:34;7.72;;;6.70;;
39982;SDS011;25670;44.782;10.356;2023-02-28T06:12:02;8.55;;;7.40;;
39982;SDS011;25670;44.782;10.356;2023-02-28T06:14:31;9.77;;;8.05;;
39982;SDS011;25670;44.782;10.356;2023-02-28T06:17:01;8.73;;;7.50;;
39982;SDS011;25670;44.782;10.356;2023-02-28T06:19:28;12.50;;;8.82;;
39982;SDS011;25670;44.782;10.356;2023-02-28T06:21:55;13.43;;;8.55;;
39982;SDS011;25670;44.782;10.356;2023-02-28T06:24:23;11.88;;;9.13;;
39982;SDS011;25670;44.782;10.356;2023-02-28T06:26:50;9.52;;;8.57;;
39982;SDS011;25670;44.782;10.356;2023-02-28T06:29:17;8.40;;;7.68;;
39982;SDS011;25670;44.782;10.356;2023-02-28T06:31:44;10.85;;;8.20;;
39982;SDS011;25670;44.782;10.356;2023-02-28T06:34:11;10.45;;;8.15;;
39982;SDS011;25670;44.782;10.356;2023-02-28T06:36:39;18.73;;;9.23;;
39982;SDS011;25670;44.782;10.356;2023-02-28T06:39:06;11.95;;;9.70;;
39982;SDS011;25670;44.782;10.356;2023-02-28T06:41:32;16.33;;;10.32;;
39982;SDS011;25670;44.782;10.356;2023-02-28T06:44:12;15.88;;;9.27;;
39982;SDS011;25670;44.782;10.356;2023-02-28T06:46:41;12.25;;;9.18;;
39982;SDS011;25670;44.782;10.356;2023-02-28T06:49:09;18.63;;;10.25;;
39982;SDS011;25670;44.782;10.356;2023-02-28T06:51:39;13.90;;;10.38;;
39982;SDS011;25670;44.782;10.356;2023-02-28T06:54:07;11.35;;;9.18;;
39982;SDS011;25670;44.782;10.356;2023-02-28T06:56:34;13.95;;;9.18;;
39982;SDS011;25670;44.782;10.356;2023-02-28T06:59:01;12.63;;;10.00;;
39982;SDS011;25670;44.782;10.356;2023-02-28T07:01:27;11.20;;;9.35;;
39982;SDS011;25670;44.782;10.356;2023-02-28T07:03:54;15.35;;;10.13;;
39982;SDS011;25670;44.782;10.356;2023-02-28T07:06:22;16.67;;;10.13;;
39982;SDS011;25670;44.782;10.356;2023-02-28T07:08:48;16.65;;;10.35;;
39982;SDS011;25670;44.782;10.356;2023-02-28T07:11:15;13.38;;;10.60;;
39982;SDS011;25670;44.782;10.356;2023-02-28T07:13:41;10.60;;;9.35;;
39982;SDS011;25670;44.782;10.356;2023-02-28T07:16:09;19.52;;;12.35;;
39982;SDS011;25670;44.782;10.356;2023-02-28T07:18:36;18.70;;;10.15;;
39982;SDS011;25670;44.782;10.356;2023-02-28T07:21:04;13.55;;;9.85;;
39982;SDS011;25670;44.782;10.356;2023-02-28T07:23:32;18.10;;;9.95;;
39982;SDS011;25670;44.782;10.356;2023-02-28T07:25:59;13.00;;;10.00;;
39982;SDS011;25670;44.782;10.356;2023-02-28T07:28:25;11.50;;;9.43;;
39982;SDS011;25670;44.782;10.356;2023-02-28T07:30:52;13.50;;;9.43;;
39982;SDS011;25670;44.782;10.356;2023-02-28T07:33:18;10.75;;;9.15;;
39982;SDS011;25670;44.782;10.356;2023-02-28T07:35:45;12.45;;;8.95;;
39982;SDS011;25670;44.782;10.356;2023-02-28T07:38:11;12.68;;;8.45;;
39982;SDS011;25670;44.782;10.356;2023-02-28T07:40:39;10.88;;;8.95;;
39982;SDS011;25670;44.782;10.356;2023-02-28T07:43:05;16.63;;;9.30;;
39982;SDS011;25670;44.782;10.356;2023-02-28T07:45:32;16.83;;;9.88;;
39982;SDS011;25670;44.782;10.356;2023-02-28T07:48:00;18.00;;;11.40;;
39982;SDS011;25670;44.782;10.356;2023-02-28T07:50:26;25.95;;;14.32;;
39982;SDS011;25670;44.782;10.356;2023-02-28T07:52:57;14.45;;;9.27;;
39982;SDS011;25670;44.782;10.356;2023-02-28T07:55:24;11.60;;;9.80;;
39982;SDS011;25670;44.782;10.356;2023-02-28T07:57:51;20.10;;;11.15;;
39982;SDS011;25670;44.782;10.356;2023-02-28T08:00:17;13.20;;;9.63;;
39982;SDS011;25670;44.782;10.356;2023-02-28T08:02:44;12.68;;;9.57;;
39982;SDS011;25670;44.782;10.356;2023-02-28T08:05:10;10.88;;;9.18;;
39982;SDS011;25670;44.782;10.356;2023-02-28T08:07:36;11.80;;;9.30;;
39982;SDS011;25670;44.782;10.356;2023-02-28T08:10:03;15.05;;;9.32;;
39982;SDS011;25670;44.782;10.356;2023-02-28T08:12:31;13.65;;;9.88;;
39982;SDS011;25670;44.782;10.356;2023-02-28T08:14:57;11.18;;;8.85;;
39982;SDS011;25670;44.782;10.356;2023-02-28T08:17:24;23.25;;;9.25;;
39982;SDS011;25670;44.782;10.356;2023-02-28T08:19:50;14.60;;;9.68;;
39982;SDS011;25670;44.782;10.356;2023-02-28T08:22:17;12.73;;;9.25;;
39982;SDS011;25670;44.782;10.356;2023-02-28T08:24:43;12.60;;;9.40;;
39982;SDS011;25670;44.782;10.356;2023-02-28T08:27:10;11.82;;;9.10;;
39982;SDS011;25670;44.782;10.356;2023-02-28T08:29:37;11.40;;;8.85;;
39982;SDS011;25670;44.782;10.356;2023-02-28T08:32:04;13.63;;;9.07;;
39982;SDS011;25670;44.782;10.356;2023-02-28T08:34:31;10.57;;;8.40;;
39982;SDS011;25670;44.782;10.356;2023-02-28T08:36:58;11.20;;;9.20;;
39982;SDS011;25670;44.782;10.356;2023-02-28T08:39:24;16.02;;;9.52;;
39982;SDS011;25670;44.782;10.356;2023-02-28T08:41:51;16.73;;;10.25;;
39982;SDS011;25670;44.782;10.356;2023-02-28T08:44:17;15.68;;;10.38;;
39982;SDS011;25670;44.782;10.356;2023-02-28T08:46:44;14.57;;;9.05;;
39982;SDS011;25670;44.782;10.356;2023-02-28T08:49:10;12.18;;;10.32;;
39982;SDS011;25670;44.782;10.356;2023-02-28T08:51:38;15.48;;;9.43;;
39982;SDS011;25670;44.782;10.356;2023-02-28T08:54:04;12.63;;;10.00;;
39982;SDS011;25670;44.782;10.356;2023-02-28T08:56:31;19.13;;;9.30;;
39982;SDS011;25670;44.782;10.356;2023-02-28T08:58:57;14.65;;;9.68;;
39982;SDS011;25670;44.782;10.356;2023-02-28T09:01:25;14.93;;;8.90;;
39982;SDS011;25670;44.782;10.356;2023-02-28T09:03:53;14.90;;;9.23;;
39982;SDS011;25670;44.782;10.356;2023-02-28T09:06:20;9.85;;;8.38;;
39982;SDS011;25670;44.782;10.356;2023-02-28T09:08:48;11.45;;;10.27;;
39982;SDS011;25670;44.782;10.356;2023-02-28T09:11:16;10.65;;;9.60;;
39982;SDS011;25670;44.782;10.356;2023-02-28T09:13:44;11.00;;;9.52;;
39982;SDS011;25670;44.782;10.356;2023-02-28T09:16:12;9.75;;;8.85;;
39982;SDS011;25670;44.782;10.356;2023-02-28T09:18:39;9.68;;;8.80;;
39982;SDS011;25670;44.782;10.356;2023-02-28T09:21:07;17.85;;;9.43;;
39982;SDS011;25670;44.782;10.356;2023-02-28T09:23:35;12.63;;;8.50;;
39982;SDS011;25670;44.782;10.356;2023-02-28T09:26:03;20.27;;;9.07;;
39982;SDS011;25670;44.782;10.356;2023-02-28T09:28:30;13.75;;;8.52;;
39982;SDS011;25670;44.782;10.356;2023-02-28T09:30:57;9.60;;;8.63;;
39982;SDS011;25670;44.782;10.356;2023-02-28T09:33:24;9.93;;;8.15;;
39982;SDS011;25670;44.782;10.356;2023-02-28T09:35:51;14.68;;;9.68;;
39982;SDS011;25670;44.782;10.356;2023-02-28T09:38:24;10.02;;;9.20;;
39982;SDS011;25670;44.782;10.356;2023-02-28T09:41:08;13.85;;;9.15;;
39982;SDS011;25670;44.782;10.356;2023-02-28T09:43:39;14.20;;;7.85;;
39982;SDS011;25670;44.782;10.356;2023-02-28T09:46:53;11.65;;;9.07;;
39982;SDS011;25670;44.782;10.356;2023-02-28T09:49:14;13.10;;;8.48;;
39982;SDS011;25670;44.782;10.356;2023-02-28T09:51:45;11.63;;;8.85;;
39982;SDS011;25670;44.782;10.356;2023-02-28T09:56:53;10.23;;;8.45;;
39982;SDS011;25670;44.782;10.356;2023-02-28T09:59:25;12.38;;;8.55;;
39982;SDS011;25670;44.782;10.356;2023-02-28T10:04:45;8.90;;;8.00;;
39982;SDS011;25670;44.782;10.356;2023-02-28T10:10:14;12.45;;;9.15;;
39982;SDS011;25670;44.782;10.356;2023-02-28T10:12:45;9.10;;;8.20;;
39982;SDS011;25670;44.782;10.356;2023-02-28T10:15:13;9.20;;;8.38;;
39982;SDS011;25670;44.782;10.356;2023-02-28T10:17:42;9.38;;;8.20;;
39982;SDS011;25670;44.782;10.356;2023-02-28T10:20:14;8.85;;;7.60;;
39982;SDS011;25670;44.782;10.356;2023-02-28T10:25:20;9.55;;;8.55;;
39982;SDS011;25670;44.782;10.356;2023-02-28T10:27:49;15.00;;;8.90;;
39982;SDS011;25670;44.782;10.356;2023-02-28T10:30:18;10.32;;;9.18;;
39982;SDS011;25670;44.782;10.356;2023-02-28T10:32:49;11.27;;;8.18;;
39982;SDS011;25670;44.782;10.356;2023-02-28T10:35:20;9.50;;;8.60;;
39982;SDS011;25670;44.782;10.356;2023-02-28T10:37:49;8.40;;;7.68;;
39982;SDS011;25670;44.782;10.356;2023-02-28T10:43:05;8.75;;;7.95;;
39982;SDS011;25670;44.782;10.356;2023-02-28T10:45:34;11.20;;;7.95;;
39982;SDS011;25670;44.782;10.356;2023-02-28T10:48:04;8.55;;;7.95;;
39982;SDS011;25670;44.782;10.356;2023-02-28T10:55:57;8.90;;;8.10;;
39982;SDS011;25670;44.782;10.356;2023-02-28T10:58:31;11.27;;;8.30;;
39982;SDS011;25670;44.782;10.356;2023-02-28T11:01:19;8.18;;;7.47;;
39982;SDS011;25670;44.782;10.356;2023-02-28T11:03:48;8.82;;;7.93;;
39982;SDS011;25670;44.782;10.356;2023-02-28T11:06:25;10.88;;;7.47;;
39982;SDS011;25670;44.782;10.356;2023-02-28T11:08:56;8.95;;;8.20;;
39982;SDS011;25670;44.782;10.356;2023-02-28T11:11:29;8.60;;;7.75;;
39982;SDS011;25670;44.782;10.356;2023-02-28T11:13:58;12.43;;;9.38;;
39982;SDS011;25670;44.782;10.356;2023-02-28T11:16:33;9.52;;;8.63;;
39982;SDS011;25670;44.782;10.356;2023-02-28T11:19:03;10.52;;;9.02;;
39982;SDS011;25670;44.782;10.356;2023-02-28T11:21:33;9.43;;;8.25;;
39982;SDS011;25670;44.782;10.356;2023-02-28T11:24:12;14.90;;;8.02;;
39982;SDS011;25670;44.782;10.356;2023-02-28T11:26:48;9.40;;;7.55;;
39982;SDS011;25670;44.782;10.356;2023-02-28T11:29:21;8.82;;;8.10;;
39982;SDS011;25670;44.782;10.356;2023-02-28T11:32:00;9.57;;;8.25;;
39982;SDS011;25670;44.782;10.356;2023-02-28T11:34:36;11.15;;;8.25;;
39982;SDS011;25670;44.782;10.356;2023-02-28T11:37:03;10.05;;;9.15;;
39982;SDS011;25670;44.782;10.356;2023-02-28T11:39:31;9.48;;;8.68;;
39982;SDS011;25670;44.782;10.356;2023-02-28T11:45:19;8.20;;;7.50;;
39982;SDS011;25670;44.782;10.356;2023-02-28T11:47:59;12.55;;;8.15;;
39982;SDS011;25670;44.782;10.356;2023-02-28T11:53:23;8.98;;;8.18;;
39982;SDS011;25670;44.782;10.356;2023-02-28T11:56:21;10.43;;;7.88;;
39982;SDS011;25670;44.782;10.356;2023-02-28T11:59:05;11.15;;;8.85;;
39982;SDS011;25670;44.782;10.356;2023-02-28T12:04:47;9.18;;;8.35;;
39982;SDS011;25670;44.782;10.356;2023-02-28T12:10:03;13.43;;;8.82;;
39982;SDS011;25670;44.782;10.356;2023-02-28T12:15:41;12.88;;;9.15;;
39982;SDS011;25670;44.782;10.356;2023-02-28T12:18:35;9.63;;;8.73;;
39982;SDS011;25670;44.782;10.356;2023-02-28T12:21:05;11.55;;;8.27;;
39982;SDS011;25670;44.782;10.356;2023-02-28T12:31:46;8.70;;;7.90;;
39982;SDS011;25670;44.782;10.356;2023-02-28T12:34:28;10.70;;;9.27;;
39982;SDS011;25670;44.782;10.356;2023-02-28T12:37:00;9.90;;;8.40;;
39982;SDS011;25670;44.782;10.356;2023-02-28T12:39:31;9.60;;;8.60;;
39982;SDS011;25670;44.782;10.356;2023-02-28T12:42:03;10.00;;;8.82;;
39982;SDS011;25670;44.782;10.356;2023-02-28T12:44:36;10.90;;;8.25;;
39982;SDS011;25670;44.782;10.356;2023-02-28T12:47:16;12.15;;;8.55;;
39982;SDS011;25670;44.782;10.356;2023-02-28T12:52:20;11.27;;;8.80;;
39982;SDS011;25670;44.782;10.356;2023-02-28T12:57:42;10.68;;;8.70;;
39982;SDS011;25670;44.782;10.356;2023-02-28T13:00:22;9.32;;;8.38;;
39982;SDS011;25670;44.782;10.356;2023-02-28T13:11:33;9.05;;;7.90;;
39982;SDS011;25670;44.782;10.356;2023-02-28T13:14:26;9.43;;;8.63;;
39982;SDS011;25670;44.782;10.356;2023-02-28T13:19:35;16.25;;;9.23;;
39982;SDS011;25670;44.782;10.356;2023-02-28T13:22:15;11.88;;;7.93;;
39982;SDS011;25670;44.782;10.356;2023-02-28T13:25:49;9.20;;;8.30;;
39982;SDS011;25670;44.782;10.356;2023-02-28T13:27:54;11.63;;;9.55;;
39982;SDS011;25670;44.782;10.356;2023-02-28T13:33:21;8.75;;;7.95;;
39982;SDS011;25670;44.782;10.356;2023-02-28T13:38:53;12.57;;;9.60;;
39982;SDS011;25670;44.782;10.356;2023-02-28T13:44:00;12.20;;;9.65;;
39982;SDS011;25670;44.782;10.356;2023-02-28T13:46:29;9.60;;;8.70;;
39982;SDS011;25670;44.782;10.356;2023-02-28T13:48:55;12.00;;;9.85;;
39982;SDS011;25670;44.782;10.356;2023-02-28T13:51:27;10.18;;;9.13;;
39982;SDS011;25670;44.782;10.356;2023-02-28T13:53:56;9.80;;;8.45;;
39982;SDS011;25670;44.782;10.356;2023-02-28T13:56:33;13.30;;;10.88;;
39982;SDS011;25670;44.782;10.356;2023-02-28T13:59:43;11.20;;;9.50;;
39982;SDS011;25670;44.782;10.356;2023-02-28T14:02:18;10.02;;;9.13;;
39982;SDS011;25670;44.782;10.356;2023-02-28T14:05:14;10.38;;;9.48;;
39982;SDS011;25670;44.782;10.356;2023-02-28T14:07:46;12.70;;;9.05;;
39982;SDS011;25670;44.782;10.356;2023-02-28T14:10:21;10.02;;;9.02;;
39982;SDS011;25670;44.782;10.356;2023-02-28T14:13:11;11.77;;;9.65;;
39982;SDS011;25670;44.782;10.356;2023-02-28T14:18:15;10.57;;;9.52;;
39982;SDS011;25670;44.782;10.356;2023-02-28T14:29:01;12.82;;;9.45;;
39982;SDS011;25670;44.782;10.356;2023-02-28T14:31:54;11.18;;;10.07;;
39982;SDS011;25670;44.782;10.356;2023-02-28T14:37:37;12.17;;;9.80;;
39982;SDS011;25670;44.782;10.356;2023-02-28T14:40:12;10.60;;;9.63;;
39982;SDS011;25670;44.782;10.356;2023-02-28T14:43:16;10.68;;;9.57;;
39982;SDS011;25670;44.782;10.356;2023-02-28T14:45:48;12.45;;;9.52;;
39982;SDS011;25670;44.782;10.356;2023-02-28T14:48:20;10.90;;;9.90;;
39982;SDS011;25670;44.782;10.356;2023-02-28T14:50:48;12.27;;;9.85;;
39982;SDS011;25670;44.782;10.356;2023-02-28T14:53:20;13.10;;;10.82;;
39982;SDS011;25670;44.782;10.356;2023-02-28T14:55:48;10.95;;;9.23;;
39982;SDS011;25670;44.782;10.356;2023-02-28T14:58:23;11.05;;;9.95;;
39982;SDS011;25670;44.782;10.356;2023-02-28T15:00:59;10.80;;;9.77;;
39982;SDS011;25670;44.782;10.356;2023-02-28T15:05:59;10.52;;;9.68;;
39982;SDS011;25670;44.782;10.356;2023-02-28T15:08:26;10.82;;;9.90;;
39982;SDS011;25670;44.782;10.356;2023-02-28T15:11:01;11.13;;;9.85;;
39982;SDS011;25670;44.782;10.356;2023-02-28T15:13:49;11.27;;;10.15;;
39982;SDS011;25670;44.782;10.356;2023-02-28T15:16:22;10.95;;;9.63;;
39982;SDS011;25670;44.782;10.356;2023-02-28T15:19:23;10.93;;;9.45;;
39982;SDS011;25670;44.782;10.356;2023-02-28T15:22:02;11.15;;;10.15;;
39982;SDS011;25670;44.782;10.356;2023-02-28T15:24:36;12.68;;;10.50;;
39982;SDS011;25670;44.782;10.356;2023-02-28T15:27:12;17.70;;;11.57;;
39982;SDS011;25670;44.782;10.356;2023-02-28T15:29:48;12.55;;;11.07;;
39982;SDS011;25670;44.782;10.356;2023-02-28T15:32:35;25.90;;;12.07;;
39982;SDS011;25670;44.782;10.356;2023-02-28T15:40:31;18.05;;;11.85;;
39982;SDS011;25670;44.782;10.356;2023-02-28T15:43:18;12.52;;;11.32;;
39982;SDS011;25670;44.782;10.356;2023-02-28T15:46:01;15.52;;;10.30;;
39982;SDS011;25670;44.782;10.356;2023-02-28T15:48:34;21.85;;;12.02;;
39982;SDS011;25670;44.782;10.356;2023-02-28T15:51:51;13.98;;;11.63;;
39982;SDS011;25670;44.782;10.356;2023-02-28T15:53:56;13.20;;;10.70;;
39982;SDS011;25670;44.782;10.356;2023-02-28T15:56:29;14.23;;;11.55;;
39982;SDS011;25670;44.782;10.356;2023-02-28T15:59:07;17.65;;;12.55;;
39982;SDS011;25670;44.782;10.356;2023-02-28T16:01:43;12.52;;;11.23;;
39982;SDS011;25670;44.782;10.356;2023-02-28T16:04:16;13.25;;;11.93;;
39982;SDS011;25670;44.782;10.356;2023-02-28T16:09:27;14.80;;;12.45;;
39982;SDS011;25670;44.782;10.356;2023-02-28T16:11:55;16.35;;;12.48;;
39982;SDS011;25670;44.782;10.356;2023-02-28T16:14:26;19.00;;;12.65;;
39982;SDS011;25670;44.782;10.356;2023-02-28T16:16:54;13.40;;;11.98;;
39982;SDS011;25670;44.782;10.356;2023-02-28T16:19:22;13.45;;;11.00;;
39982;SDS011;25670;44.782;10.356;2023-02-28T16:21:49;18.50;;;12.15;;
39982;SDS011;25670;44.782;10.356;2023-02-28T16:24:16;12.48;;;11.20;;
39982;SDS011;25670;44.782;10.356;2023-02-28T16:26:45;13.90;;;11.07;;
39982;SDS011;25670;44.782;10.356;2023-02-28T16:29:15;15.52;;;12.18;;
39982;SDS011;25670;44.782;10.356;2023-02-28T16:31:51;18.55;;;11.82;;
39982;SDS011;25670;44.782;10.356;2023-02-28T16:34:19;24.30;;;12.57;;
39982;SDS011;25670;44.782;10.356;2023-02-28T16:36:48;14.45;;;11.82;;
39982;SDS011;25670;44.782;10.356;2023-02-28T16:39:15;18.45;;;12.82;;
39982;SDS011;25670;44.782;10.356;2023-02-28T16:41:52;23.30;;;12.75;;
39982;SDS011;25670;44.782;10.356;2023-02-28T16:44:29;18.65;;;12.27;;
39982;SDS011;25670;44.782;10.356;2023-02-28T16:47:03;20.67;;;13.10;;
39982;SDS011;25670;44.782;10.356;2023-02-28T16:49:30;18.42;;;12.98;;
39982;SDS011;25670;44.782;10.356;2023-02-28T16:51:56;17.83;;;12.90;;
39982;SDS011;25670;44.782;10.356;2023-02-28T16:54:23;18.27;;;13.63;;
39982;SDS011;25670;44.782;10.356;2023-02-28T16:56:50;18.58;;;12.57;;
39982;SDS011;25670;44.782;10.356;2023-02-28T16:59:18;19.17;;;13.95;;
39982;SDS011;25670;44.782;10.356;2023-02-28T17:01:50;20.98;;;13.60;;